Skip to main content

NOAA/GLERL Met Station at Chicago, IL

Previous 5 days (top of hour only)
See also Previous 3 Hours (2 minute increments)
Jump down to Data
Switch to [English][Metric]
Zoom: Click and drag, Pan: shift-click and drag, Unzoom: double-click, Unzoom All




Note: Speed = mean wind during 2-minute period at top of hour,
Gust = max wind during 2-minute period at top of hour,
Peak = max wind during entire hour.
• See also 5-day windrose plot


NOAA/GLERL Met Station at Chicago, IL

Previous 5 days (top of hour only)
See also Previous 3 Hours (2 minute increments)
Jump up to Graphs
Switch to [English][Metric]
                  Wind  Wind  Wind   Air   Dew   Rel
                   Spd   Gst   Dir  Temp    Pt   Hum
YYYY-MM-DD   CDT   kts   kts   deg     F     F     %
2022-10-03 13:00   4.1   6.0    41  57.2  46.0  65.8
2022-10-03 12:00   0.6   1.0    36  57.2  45.9  65.5
2022-10-03 11:00   0.2   1.0   185  59.0  45.1  59.6
2022-10-03 10:00   3.3   3.9   146  57.9  45.4  62.8
2022-10-03 09:00   4.5   6.0   161  55.9  45.9  68.7
2022-10-03 08:00   4.1   6.2   152  57.2  44.9  63.1
2022-10-03 07:00   7.2   8.0   136  56.3  43.9  62.8
2022-10-03 06:00   8.0   9.3   132  56.1  44.7  65.1
2022-10-03 05:00   8.7  10.3   138  57.0  44.5  62.7
2022-10-03 04:00  11.7  13.0   109  57.4  44.4  61.5
2022-10-03 03:00  12.6  14.6   100  58.3  49.0  71.0
2022-10-03 02:00  12.4  14.8    96  58.6  49.2  70.5
2022-10-03 01:00  15.4  16.7    94  59.4  46.9  63.0
2022-10-03 00:00  16.3  18.7    77  60.6  46.2  58.6
2022-10-02 23:00  16.5  17.9    50  60.8  53.2  75.8
2022-10-02 22:00  17.9  19.1    43  60.3  52.5  75.4
2022-10-02 21:00  18.5  20.4    31  60.1  52.0  74.3
2022-10-02 20:00  18.3  20.0    25  59.4  51.9  76.0
2022-10-02 19:00  18.1  19.4     8  59.0  50.7  73.6
2022-10-02 18:00  16.9  19.2     9  59.0  50.6  73.4
2022-10-02 17:00  17.1  19.4   358  58.5  52.1  79.0
2022-10-02 16:00  17.5  19.2    11  59.0  51.4  75.5
2022-10-02 15:00  17.1  19.1     6  59.2  51.9  76.5
2022-10-02 14:00  16.7  17.9    16  59.0  52.2  77.8
2022-10-02 13:00  15.0  16.9    19  59.0  52.9  80.0
2022-10-02 12:00  13.2  14.4    17  59.4  53.7  81.4
2022-10-02 11:00  13.0  14.8    26  59.0  53.7  82.3
2022-10-02 10:00  13.2  14.8    47  59.2  53.7  81.8
2022-10-02 09:00  14.2  15.9    59  59.5  54.3  82.7
2022-10-02 08:00  14.4  16.3    64  59.0  53.5  81.6
2022-10-02 07:00  16.3  18.9    62  59.0  54.5  84.8
2022-10-02 06:00  18.1  19.6    57  59.2  55.0  86.0
2022-10-02 05:00  17.7  19.2    61  59.4  55.0  85.2
2022-10-02 04:00  18.7  19.8    71  60.1  53.8  79.5
2022-10-02 03:00  16.1  17.7    68  61.7  52.9  72.5
2022-10-02 02:00  17.7  18.7    68  62.8  49.6  61.8
2022-10-02 01:00  14.2  15.9    48  63.0  57.0  80.6
2022-10-02 00:00  15.9  17.5    23  62.6  57.0  81.6
2022-10-01 23:00  18.3  19.2    19  62.1  55.8  79.6
2022-10-01 22:00  19.6  20.8    17  61.3  55.3  80.4
2022-10-01 21:00  20.0  21.0    11  61.3  53.2  74.4
2022-10-01 20:00  19.6  21.8     9  61.9  52.2  70.3
2022-10-01 19:00  16.9  18.1     3  62.2  53.3  72.1
2022-10-01 18:00  17.3  18.9     4  62.2  51.3  67.1
2022-10-01 17:00  17.7  19.4     2  61.7  51.4  68.6
2022-10-01 16:00  15.0  16.3   358  61.3  53.0  73.7
2022-10-01 15:00  15.9  17.1     9  61.3  49.4  64.4
2022-10-01 14:00  13.8  15.0    18  60.6  49.8  67.1
2022-10-01 13:00  13.6  14.6    32  60.4  50.4  69.1
2022-10-01 12:00  13.8  14.8    31  60.8  49.9  67.0
2022-10-01 11:00  14.4  15.7    30  60.8  50.6  68.7
2022-10-01 10:00  13.0  14.4    22  60.8  52.9  75.0
2022-10-01 09:00  12.2  13.4    43  61.3  52.1  71.3
2022-10-01 08:00  12.2  13.2    47  61.2  51.5  70.1
2022-10-01 07:00  11.1  12.1    51  61.2  52.2  72.1
2022-10-01 06:00  11.5  12.6    52  61.2  52.2  72.0
2022-10-01 05:00  12.4  13.6    57  61.3  50.5  67.1
2022-10-01 04:00  14.6  15.4    64  61.5  49.4  64.1
2022-10-01 03:00  15.4  15.9    64  61.2  54.1  77.2
2022-10-01 02:00  16.1  17.3    57  60.8  54.6  79.7
2022-10-01 01:00  16.7  17.5    62  60.4  54.1  79.2
2022-10-01 00:00  14.0  15.7    45  60.3  55.0  82.7
2022-09-30 23:00  14.4  15.7    48  60.3  54.0  79.6
2022-09-30 22:00  13.6  14.6    51  60.1  53.4  78.3
2022-09-30 21:00  13.8  15.6    49  60.3  51.8  73.4
2022-09-30 20:00  13.8  15.0    36  59.9  50.8  71.5
2022-09-30 19:00  13.0  14.0    32  59.7  49.4  68.4
2022-09-30 18:00  11.1  13.0    35  59.5  48.1  65.6
2022-09-30 17:00   9.1  10.1    29  59.4  47.1  63.5
2022-09-30 16:00   9.1  10.3    33  59.0  48.1  66.9
2022-09-30 15:00   8.7  10.1    39  58.6  46.5  63.6
2022-09-30 14:00   4.9   5.6    25  58.1  48.3  69.6
2022-09-30 13:00   2.9   3.5    34  57.9  47.1  67.0
2022-09-30 12:00   1.9   2.7    85  59.5  47.8  64.8
2022-09-30 11:00   3.9   5.4   156  58.3  48.0  68.3
2022-09-30 10:00   4.7   5.6   186  56.5  49.0  75.8
2022-09-30 09:00   7.8   9.5   175  55.8  49.3  78.6
2022-09-30 08:00   7.0   8.2   190  55.4  48.8  78.2
2022-09-30 07:00   7.4   8.0   193  55.6  48.1  75.7
2022-09-30 06:00   7.0   8.7   164  57.0  49.4  75.3
2022-09-30 05:00   8.2   9.9   167  57.6  47.9  69.8
2022-09-30 04:00   5.4   7.8   177  58.1  49.5  72.7
2022-09-30 03:00   9.7  11.3   188  58.6  48.6  68.9
2022-09-30 02:00  10.3  13.4   171  59.2  48.0  66.1
2022-09-30 01:00  11.9  15.6   155  59.2  48.7  68.0
2022-09-30 00:00  14.8  16.1   143  59.7  49.0  67.2
2022-09-29 23:00  14.2  15.0   131  60.4  48.1  63.4
2022-09-29 22:00   9.1   9.9    88  59.2  50.8  73.5
2022-09-29 21:00   8.2  10.9    93  58.5  50.6  74.9
2022-09-29 20:00   6.8   7.8    77  57.7  48.5  71.0
2022-09-29 19:00   5.8   7.2    89  56.8  47.2  69.8
2022-09-29 18:00   4.3   5.8    51  57.0  46.0  66.4
2022-09-29 17:00   4.3   4.9    73  57.0  45.4  64.8
2022-09-29 16:00   5.4   7.0    61  56.7  44.8  64.2
2022-09-29 15:00   5.4   6.8    94  56.5  43.7  62.0
2022-09-29 14:00   7.2   8.6    92  56.5  44.2  63.1
2022-09-29 13:00   1.2   2.9   162  55.9  44.9  66.1
2022-09-29 12:00   4.9   7.8   175  55.2  44.9  68.0
2022-09-29 11:00   6.6   7.6   184  53.8  44.4  70.3
2022-09-29 10:00   8.2   9.5   191  53.6  43.8  69.0
2022-09-29 09:00   5.8   8.0   205  53.2  42.9  67.5
2022-09-29 08:00   5.8   7.0   191  53.2  43.1  68.1
2022-09-29 07:00   7.0   7.6   209  52.9  43.1  69.1
2022-09-29 06:00   9.5  10.9   208  53.1  43.1  68.7
2022-09-29 05:00   9.1  10.3   207  52.9  43.1  69.1
2022-09-29 04:00  12.2  13.4   205  52.7  42.2  67.1
2022-09-29 03:00   4.1   5.4     2  54.7  44.3  67.6
2022-09-29 02:00   4.1   4.9    32  54.5  43.4  65.7
2022-09-29 01:00   3.9   4.7    58  53.8  42.2  64.5
2022-09-29 00:00   9.3  11.5    60  53.2  38.9  57.9
2022-09-28 23:00  10.3  12.1    54  53.4  42.0  64.9
2022-09-28 22:00  10.7  12.1    34  54.0  40.5  60.0
2022-09-28 21:00  11.7  15.6    42  54.1  39.0  56.2
2022-09-28 20:00  15.9  19.1    33  54.9  42.3  62.3
2022-09-28 19:00  15.6  17.3    32  55.0  42.5  62.2